sensor_id;sensor_type;location;lat;lon;timestamp;pressure;altitude;pressure_sealevel;temperature;humidity
25664;BME280;13522;50.018;20.014;2023-04-04T00:01:31;99479.31;;;1.49;84.02
25664;BME280;13522;50.018;20.014;2023-04-04T00:04:43;99480.44;;;1.44;84.04
25664;BME280;13522;50.018;20.014;2023-04-04T00:07:55;99484.23;;;1.37;84.75
25664;BME280;13522;50.018;20.014;2023-04-04T00:11:07;99482.67;;;1.33;84.70
25664;BME280;13522;50.018;20.014;2023-04-04T00:14:19;99479.42;;;1.28;85.03
25664;BME280;13522;50.018;20.014;2023-04-04T00:17:33;99479.42;;;1.28;84.23
25664;BME280;13522;50.018;20.014;2023-04-04T00:20:45;99480.13;;;1.31;85.25
25664;BME280;13522;50.018;20.014;2023-04-04T00:23:57;99483.09;;;1.24;85.70
25664;BME280;13522;50.018;20.014;2023-04-04T00:27:09;99483.09;;;1.24;85.54
25664;BME280;13522;50.018;20.014;2023-04-04T00:30:21;99477.08;;;1.22;85.63
25664;BME280;13522;50.018;20.014;2023-04-04T00:33:36;99480.55;;;1.22;86.85
25664;BME280;13522;50.018;20.014;2023-04-04T00:36:48;99481.60;;;1.18;85.74
25664;BME280;13522;50.018;20.014;2023-04-04T00:40:01;99493.83;;;1.18;86.72
25664;BME280;13522;50.018;20.014;2023-04-04T00:43:14;99496.63;;;1.13;85.98
25664;BME280;13522;50.018;20.014;2023-04-04T00:46:27;99491.10;;;1.01;86.37
25664;BME280;13522;50.018;20.014;2023-04-04T00:49:40;99485.88;;;1.01;86.63
25664;BME280;13522;50.018;20.014;2023-04-04T00:52:52;99485.09;;;0.99;86.91
25664;BME280;13522;50.018;20.014;2023-04-04T00:56:07;99487.97;;;0.93;87.40
25664;BME280;13522;50.018;20.014;2023-04-04T00:59:19;99486.25;;;0.92;87.48
25664;BME280;13522;50.018;20.014;2023-04-04T01:02:33;99493.45;;;0.86;87.73
25664;BME280;13522;50.018;20.014;2023-04-04T01:05:46;99487.52;;;0.83;88.30
25664;BME280;13522;50.018;20.014;2023-04-04T01:08:59;99499.20;;;0.74;87.73
25664;BME280;13522;50.018;20.014;2023-04-04T01:12:11;99495.61;;;0.77;88.66
25664;BME280;13522;50.018;20.014;2023-04-04T01:15:24;99498.23;;;0.77;88.78
25664;BME280;13522;50.018;20.014;2023-04-04T01:18:37;99495.61;;;0.77;89.14
25664;BME280;13522;50.018;20.014;2023-04-04T01:21:53;99499.20;;;0.74;89.40
25664;BME280;13522;50.018;20.014;2023-04-04T01:25:08;99497.63;;;0.70;89.47
25664;BME280;13522;50.018;20.014;2023-04-04T01:28:24;99508.94;;;0.71;90.04
25664;BME280;13522;50.018;20.014;2023-04-04T01:31:40;99513.31;;;0.70;89.77
25664;BME280;13522;50.018;20.014;2023-04-04T01:34:53;99508.08;;;0.70;89.83
25664;BME280;13522;50.018;20.014;2023-04-04T01:38:17;99514.88;;;0.74;89.79
25664;BME280;13522;50.018;20.014;2023-04-04T01:41:33;99511.34;;;0.75;90.04
25664;BME280;13522;50.018;20.014;2023-04-04T01:44:45;99518.39;;;0.73;89.92
25664;BME280;13522;50.018;20.014;2023-04-04T01:47:59;99513.05;;;0.76;90.21
25664;BME280;13522;50.018;20.014;2023-04-04T01:51:11;99504.42;;;0.74;89.81
25664;BME280;13522;50.018;20.014;2023-04-04T01:54:24;99507.16;;;0.71;89.32
25664;BME280;13522;50.018;20.014;2023-04-04T01:57:37;99503.56;;;0.74;90.22
25664;BME280;13522;50.018;20.014;2023-04-04T02:00:49;99504.54;;;0.71;89.32
25664;BME280;13522;50.018;20.014;2023-04-04T02:04:02;99499.27;;;0.73;89.32
25664;BME280;13522;50.018;20.014;2023-04-04T02:07:16;99504.54;;;0.71;89.30
25664;BME280;13522;50.018;20.014;2023-04-04T02:10:29;99509.91;;;0.68;89.16
25664;BME280;13522;50.018;20.014;2023-04-04T02:13:41;99506.25;;;0.72;89.72
25664;BME280;13522;50.018;20.014;2023-04-04T02:16:55;99508.87;;;0.72;89.73
25664;BME280;13522;50.018;20.014;2023-04-04T02:20:09;99505.28;;;0.75;89.78
25664;BME280;13522;50.018;20.014;2023-04-04T02:23:23;99510.44;;;0.76;89.77
25664;BME280;13522;50.018;20.014;2023-04-04T02:26:35;99506.25;;;0.72;89.50
25664;BME280;13522;50.018;20.014;2023-04-04T02:29:47;99504.42;;;0.74;90.31
25664;BME280;13522;50.018;20.014;2023-04-04T02:33:00;99505.47;;;0.70;89.57
25664;BME280;13522;50.018;20.014;2023-04-04T02:36:13;99515.85;;;0.72;90.44
25664;BME280;13522;50.018;20.014;2023-04-04T02:39:25;99507.83;;;0.76;90.35
25664;BME280;13522;50.018;20.014;2023-04-04T02:42:37;99507.36;;;0.67;90.24
25664;BME280;13522;50.018;20.014;2023-04-04T02:45:55;99510.95;;;0.64;90.91
25664;BME280;13522;50.018;20.014;2023-04-04T02:49:09;99508.33;;;0.64;91.08
25664;BME280;13522;50.018;20.014;2023-04-04T02:52:23;99500.88;;;0.75;91.63
25664;BME280;13522;50.018;20.014;2023-04-04T02:55:38;99506.25;;;0.72;91.63
25664;BME280;13522;50.018;20.014;2023-04-04T02:58:50;99502.70;;;0.73;91.24
25664;BME280;13522;50.018;20.014;2023-04-04T03:02:02;99506.36;;;0.69;91.80
25664;BME280;13522;50.018;20.014;2023-04-04T03:05:15;99505.80;;;0.63;90.41
25664;BME280;13522;50.018;20.014;2023-04-04T03:08:27;99504.86;;;0.64;91.13
25664;BME280;13522;50.018;20.014;2023-04-04T03:11:40;99498.02;;;0.61;91.01
25664;BME280;13522;50.018;20.014;2023-04-04T03:14:52;99494.73;;;0.56;91.18
25664;BME280;13522;50.018;20.014;2023-04-04T03:18:05;99494.48;;;0.62;91.58
25664;BME280;13522;50.018;20.014;2023-04-04T03:21:17;99488.47;;;0.60;91.53
25664;BME280;13522;50.018;20.014;2023-04-04T03:24:30;99496.20;;;0.63;92.05
25664;BME280;13522;50.018;20.014;2023-04-04T03:27:44;99499.70;;;0.62;91.53
25664;BME280;13522;50.018;20.014;2023-04-04T03:31:05;99490.83;;;0.66;91.55
25664;BME280;13522;50.018;20.014;2023-04-04T03:34:19;99493.37;;;0.68;91.63
25664;BME280;13522;50.018;20.014;2023-04-04T03:37:32;99487.28;;;0.67;91.72
25664;BME280;13522;50.018;20.014;2023-04-04T03:40:44;99474.50;;;0.61;92.13
25664;BME280;13522;50.018;20.014;2023-04-04T03:43:58;99482.05;;;0.67;91.61
25664;BME280;13522;50.018;20.014;2023-04-04T03:47:11;99476.19;;;0.62;92.59
25664;BME280;13522;50.018;20.014;2023-04-04T03:50:23;99475.14;;;0.66;91.38
25664;BME280;13522;50.018;20.014;2023-04-04T03:53:37;99479.66;;;0.63;90.74
25664;BME280;13522;50.018;20.014;2023-04-04T03:56:49;99471.89;;;0.61;91.28
25664;BME280;13522;50.018;20.014;2023-04-04T04:00:03;99467.45;;;0.63;91.22
25664;BME280;13522;50.018;20.014;2023-04-04T04:03:17;99468.20;;;0.65;91.17
25664;BME280;13522;50.018;20.014;2023-04-04T04:06:29;99464.83;;;0.63;90.59
25664;BME280;13522;50.018;20.014;2023-04-04T04:09:42;99462.08;;;0.66;91.13
25664;BME280;13522;50.018;20.014;2023-04-04T04:12:54;99458.34;;;0.72;91.56
25664;BME280;13522;50.018;20.014;2023-04-04T04:16:07;99459.20;;;0.72;91.95
25664;BME280;13522;50.018;20.014;2023-04-04T04:19:20;99466.26;;;0.70;91.59
25664;BME280;13522;50.018;20.014;2023-04-04T04:22:32;99469.13;;;0.64;91.84
25664;BME280;13522;50.018;20.014;2023-04-04T04:25:47;99466.77;;;0.58;91.98
25664;BME280;13522;50.018;20.014;2023-04-04T04:29:01;99464.88;;;0.62;92.65
25664;BME280;13522;50.018;20.014;2023-04-04T04:32:17;99475.28;;;0.63;91.43
25664;BME280;13522;50.018;20.014;2023-04-04T04:35:32;99468.20;;;0.65;91.73
25664;BME280;13522;50.018;20.014;2023-04-04T04:38:47;99468.85;;;0.50;92.66
25664;BME280;13522;50.018;20.014;2023-04-04T04:42:00;99467.56;;;0.60;92.40
25664;BME280;13522;50.018;20.014;2023-04-04T04:45:13;99467.48;;;0.62;92.89
25664;BME280;13522;50.018;20.014;2023-04-04T04:48:27;99470.06;;;0.63;93.10
25664;BME280;13522;50.018;20.014;2023-04-04T04:51:39;99469.13;;;0.64;94.39
25664;BME280;13522;50.018;20.014;2023-04-04T04:54:52;99479.13;;;0.55;93.47
25664;BME280;13522;50.018;20.014;2023-04-04T04:58:05;99472.14;;;0.55;94.15
25664;BME280;13522;50.018;20.014;2023-04-04T05:01:19;99474.87;;;0.52;93.12
25664;BME280;13522;50.018;20.014;2023-04-04T05:04:33;99479.05;;;0.56;93.66
25664;BME280;13522;50.018;20.014;2023-04-04T05:07:46;99481.27;;;0.65;92.61
25664;BME280;13522;50.018;20.014;2023-04-04T05:10:59;99482.34;;;0.61;92.97
25664;BME280;13522;50.018;20.014;2023-04-04T05:14:12;99482.34;;;0.61;94.32
25664;BME280;13522;50.018;20.014;2023-04-04T05:17:27;99482.05;;;0.67;94.84
25664;BME280;13522;50.018;20.014;2023-04-04T05:20:41;99483.33;;;0.79;94.50
25664;BME280;13522;50.018;20.014;2023-04-04T05:23:55;99479.97;;;0.75;93.95
25664;BME280;13522;50.018;20.014;2023-04-04T05:27:08;99483.70;;;0.70;92.64
25664;BME280;13522;50.018;20.014;2023-04-04T05:30:22;99459.64;;;0.62;93.32
25664;BME280;13522;50.018;20.014;2023-04-04T05:33:39;99482.20;;;0.64;92.71
25664;BME280;13522;50.018;20.014;2023-04-04T05:36:56;99492.00;;;0.79;93.11
25664;BME280;13522;50.018;20.014;2023-04-04T05:40:11;99489.64;;;0.73;92.25
25664;BME280;13522;50.018;20.014;2023-04-04T05:43:26;99486.20;;;0.93;91.84
25664;BME280;13522;50.018;20.014;2023-04-04T05:46:40;99484.30;;;0.97;92.53
25664;BME280;13522;50.018;20.014;2023-04-04T05:49:52;99492.15;;;0.97;91.96
25664;BME280;13522;50.018;20.014;2023-04-04T05:53:05;99490.58;;;0.93;92.17
25664;BME280;13522;50.018;20.014;2023-04-04T05:56:19;99498.95;;;1.01;91.65
25664;BME280;13522;50.018;20.014;2023-04-04T05:59:33;99499.05;;;1.18;91.08
25664;BME280;13522;50.018;20.014;2023-04-04T06:02:47;99508.47;;;1.22;91.07
25664;BME280;13522;50.018;20.014;2023-04-04T06:05:59;99500.98;;;1.33;90.87
25664;BME280;13522;50.018;20.014;2023-04-04T06:09:13;99510.19;;;1.23;90.90
25664;BME280;13522;50.018;20.014;2023-04-04T06:12:25;99502.07;;;1.29;89.61
25664;BME280;13522;50.018;20.014;2023-04-04T06:15:38;99503.48;;;1.36;90.52
25664;BME280;13522;50.018;20.014;2023-04-04T06:18:51;99504.34;;;1.36;90.41
25664;BME280;13522;50.018;20.014;2023-04-04T06:22:04;99506.06;;;1.74;89.11
25664;BME280;13522;50.018;20.014;2023-04-04T06:25:18;99510.19;;;1.80;89.12
25664;BME280;13522;50.018;20.014;2023-04-04T06:28:33;99512.86;;;1.60;88.12
25664;BME280;13522;50.018;20.014;2023-04-04T06:31:49;99509.58;;;1.36;87.81
25664;BME280;13522;50.018;20.014;2023-04-04T06:35:07;99515.25;;;1.64;87.71
25664;BME280;13522;50.018;20.014;2023-04-04T06:38:22;99508.17;;;1.48;88.32
25664;BME280;13522;50.018;20.014;2023-04-04T06:41:36;99513.99;;;1.54;87.83
25664;BME280;13522;50.018;20.014;2023-04-04T06:44:50;99510.44;;;1.55;87.50
25664;BME280;13522;50.018;20.014;2023-04-04T06:48:03;99510.97;;;1.25;88.52
25664;BME280;13522;50.018;20.014;2023-04-04T06:51:16;99507.73;;;1.38;89.72
25664;BME280;13522;50.018;20.014;2023-04-04T06:54:28;99492.64;;;1.82;88.80
25664;BME280;13522;50.018;20.014;2023-04-04T06:57:40;99484.66;;;2.91;85.32
25664;BME280;13522;50.018;20.014;2023-04-04T07:00:53;99475.49;;;3.80;80.18
25664;BME280;13522;50.018;20.014;2023-04-04T07:04:06;99480.86;;;3.46;80.08
25664;BME280;13522;50.018;20.014;2023-04-04T07:07:18;99470.21;;;4.27;77.88
25664;BME280;13522;50.018;20.014;2023-04-04T07:10:31;99469.58;;;4.83;75.31
25664;BME280;13522;50.018;20.014;2023-04-04T07:13:45;99473.20;;;5.10;74.04
25664;BME280;13522;50.018;20.014;2023-04-04T07:16:57;99472.27;;;5.11;72.05
25664;BME280;13522;50.018;20.014;2023-04-04T07:20:12;99484.80;;;4.17;75.45
25664;BME280;13522;50.018;20.014;2023-04-04T07:23:24;99477.44;;;5.12;72.98
25664;BME280;13522;50.018;20.014;2023-04-04T07:26:36;99479.78;;;4.44;72.63
25664;BME280;13522;50.018;20.014;2023-04-04T07:29:49;99481.14;;;3.88;75.43
25664;BME280;13522;50.018;20.014;2023-04-04T07:33:02;99484.56;;;4.21;75.35
25664;BME280;13522;50.018;20.014;2023-04-04T07:36:14;99481.93;;;4.21;75.79
25664;BME280;13522;50.018;20.014;2023-04-04T07:39:26;99481.00;;;3.91;76.45
25664;BME280;13522;50.018;20.014;2023-04-04T07:42:44;99479.66;;;4.61;73.21
25664;BME280;13522;50.018;20.014;2023-04-04T07:45:56;99473.63;;;4.88;72.67
25664;BME280;13522;50.018;20.014;2023-04-04T07:49:09;99476.05;;;5.49;70.28
25664;BME280;13522;50.018;20.014;2023-04-04T07:52:21;99470.07;;;6.43;71.33
25664;BME280;13522;50.018;20.014;2023-04-04T07:55:34;99468.58;;;6.65;65.38
25664;BME280;13522;50.018;20.014;2023-04-04T07:58:46;99461.70;;;6.63;64.77
25664;BME280;13522;50.018;20.014;2023-04-04T08:01:59;99455.52;;;6.50;65.12
25664;BME280;13522;50.018;20.014;2023-04-04T08:05:12;99451.64;;;7.32;64.35
25664;BME280;13522;50.018;20.014;2023-04-04T08:08:24;99446.08;;;7.85;62.41
25664;BME280;13522;50.018;20.014;2023-04-04T08:11:36;99443.84;;;7.92;60.61
25664;BME280;13522;50.018;20.014;2023-04-04T08:14:48;99444.96;;;7.64;59.05
25664;BME280;13522;50.018;20.014;2023-04-04T08:18:00;99434.44;;;7.88;58.92
25664;BME280;13522;50.018;20.014;2023-04-04T08:21:13;99436.53;;;8.55;56.89
25664;BME280;13522;50.018;20.014;2023-04-04T08:24:25;99427.30;;;8.01;59.04
25664;BME280;13522;50.018;20.014;2023-04-04T08:27:40;99435.88;;;8.52;58.20
25664;BME280;13522;50.018;20.014;2023-04-04T08:30:54;99427.80;;;9.23;54.90
25664;BME280;13522;50.018;20.014;2023-04-04T08:34:07;99429.81;;;9.08;54.73
25664;BME280;13522;50.018;20.014;2023-04-04T08:37:19;99429.00;;;9.30;53.72
25664;BME280;13522;50.018;20.014;2023-04-04T08:40:32;99420.92;;;9.31;53.80
25664;BME280;13522;50.018;20.014;2023-04-04T08:43:47;99435.64;;;8.08;54.54
25664;BME280;13522;50.018;20.014;2023-04-04T08:47:03;99432.38;;;8.75;55.48
25664;BME280;13522;50.018;20.014;2023-04-04T08:50:16;99424.23;;;7.95;56.50
25664;BME280;13522;50.018;20.014;2023-04-04T08:53:31;99422.47;;;8.66;54.68
25664;BME280;13522;50.018;20.014;2023-04-04T08:56:44;99406.22;;;9.16;53.46
25664;BME280;13522;50.018;20.014;2023-04-04T08:59:58;99400.70;;;8.73;52.19
25664;BME280;13522;50.018;20.014;2023-04-04T09:03:16;99407.44;;;7.96;52.91
25664;BME280;13522;50.018;20.014;2023-04-04T09:06:30;99404.52;;;9.04;43.15
25664;BME280;13522;50.018;20.014;2023-04-04T09:09:44;99398.39;;;9.37;41.79
25664;BME280;13522;50.018;20.014;2023-04-04T09:12:59;99399.97;;;9.28;42.13
25664;BME280;13522;50.018;20.014;2023-04-04T09:16:15;99411.90;;;7.82;43.24
25664;BME280;13522;50.018;20.014;2023-04-04T09:19:29;99415.89;;;8.48;43.45
25664;BME280;13522;50.018;20.014;2023-04-04T09:22:45;99411.55;;;8.00;43.66
25664;BME280;13522;50.018;20.014;2023-04-04T09:25:57;99418.05;;;8.43;41.69
25664;BME280;13522;50.018;20.014;2023-04-04T09:29:10;99421.53;;;7.22;40.82
25664;BME280;13522;50.018;20.014;2023-04-04T09:32:23;99421.40;;;6.86;41.70
25664;BME280;13522;50.018;20.014;2023-04-04T09:35:37;99426.56;;;6.75;41.94
25664;BME280;13522;50.018;20.014;2023-04-04T09:38:54;99413.02;;;8.04;42.02
25664;BME280;13522;50.018;20.014;2023-04-04T09:42:07;99413.91;;;7.30;40.68
25664;BME280;13522;50.018;20.014;2023-04-04T09:45:20;99409.44;;;6.68;43.43
25664;BME280;13522;50.018;20.014;2023-04-04T09:48:37;99421.02;;;6.13;44.42
25664;BME280;13522;50.018;20.014;2023-04-04T09:51:54;99423.69;;;5.99;46.95
25664;BME280;13522;50.018;20.014;2023-04-04T09:55:08;99424.29;;;6.44;47.14
25664;BME280;13522;50.018;20.014;2023-04-04T09:58:24;99417.41;;;6.14;42.32
25664;BME280;13522;50.018;20.014;2023-04-04T10:01:40;99422.41;;;5.78;43.62
25664;BME280;13522;50.018;20.014;2023-04-04T10:04:55;99417.31;;;5.89;46.65
25664;BME280;13522;50.018;20.014;2023-04-04T10:08:20;99415.14;;;5.82;46.81
25664;BME280;13522;50.018;20.014;2023-04-04T10:11:34;99411.93;;;5.77;45.05
25664;BME280;13522;50.018;20.014;2023-04-04T10:14:47;99420.48;;;5.80;45.90
25664;BME280;13522;50.018;20.014;2023-04-04T10:18:00;99407.70;;;5.88;44.96
25664;BME280;13522;50.018;20.014;2023-04-04T10:21:13;99408.76;;;5.86;44.35
25664;BME280;13522;50.018;20.014;2023-04-04T10:24:26;99402.59;;;5.99;44.15
25664;BME280;13522;50.018;20.014;2023-04-04T10:27:38;99399.39;;;5.80;45.13
25664;BME280;13522;50.018;20.014;2023-04-04T10:30:54;99405.27;;;5.85;47.11
25664;BME280;13522;50.018;20.014;2023-04-04T10:34:17;99401.78;;;5.71;46.75
25664;BME280;13522;50.018;20.014;2023-04-04T10:37:33;99397.18;;;5.74;43.89
25664;BME280;13522;50.018;20.014;2023-04-04T10:40:49;99396.44;;;5.72;45.21
25664;BME280;13522;50.018;20.014;2023-04-04T10:44:08;99402.63;;;5.71;46.16
25664;BME280;13522;50.018;20.014;2023-04-04T10:47:24;99401.50;;;5.89;47.48
25664;BME280;13522;50.018;20.014;2023-04-04T10:50:39;99400.20;;;5.68;47.43
25664;BME280;13522;50.018;20.014;2023-04-04T10:53:53;99399.85;;;6.01;47.10
25664;BME280;13522;50.018;20.014;2023-04-04T10:57:05;99395.78;;;6.09;48.67
25664;BME280;13522;50.018;20.014;2023-04-04T11:00:20;99391.28;;;6.24;46.56
25664;BME280;13522;50.018;20.014;2023-04-04T11:07:24;99397.17;;;6.15;46.59
25664;BME280;13522;50.018;20.014;2023-04-04T11:10:40;99397.23;;;6.28;46.11
25664;BME280;13522;50.018;20.014;2023-04-04T11:14:00;99395.62;;;5.98;46.22
25664;BME280;13522;50.018;20.014;2023-04-04T11:17:16;99397.83;;;5.92;46.21
25664;BME280;13522;50.018;20.014;2023-04-04T11:20:35;99386.78;;;5.99;45.68
25664;BME280;13522;50.018;20.014;2023-04-04T11:24:13;99387.56;;;5.87;48.36
25664;BME280;13522;50.018;20.014;2023-04-04T11:27:26;99390.70;;;5.66;47.93
25664;BME280;13522;50.018;20.014;2023-04-04T11:30:42;99394.13;;;5.80;48.16
25664;BME280;13522;50.018;20.014;2023-04-04T11:34:01;99385.02;;;6.12;49.19
25664;BME280;13522;50.018;20.014;2023-04-04T11:37:17;99387.08;;;6.22;49.10
25664;BME280;13522;50.018;20.014;2023-04-04T11:40:37;99379.09;;;6.36;47.37
25664;BME280;13522;50.018;20.014;2023-04-04T11:43:50;99379.33;;;6.58;48.76
25664;BME280;13522;50.018;20.014;2023-04-04T11:47:09;99374.68;;;6.49;48.90
25664;BME280;13522;50.018;20.014;2023-04-04T11:50:22;99389.69;;;5.54;50.49
25664;BME280;13522;50.018;20.014;2023-04-04T11:53:34;99385.32;;;5.67;51.10
25664;BME280;13522;50.018;20.014;2023-04-04T11:56:47;99380.45;;;5.47;49.83
25664;BME280;13522;50.018;20.014;2023-04-04T12:00:00;99385.14;;;5.70;50.37
25664;BME280;13522;50.018;20.014;2023-04-04T12:03:16;99374.52;;;5.98;51.98
25664;BME280;13522;50.018;20.014;2023-04-04T12:06:31;99374.37;;;6.14;47.98
25664;BME280;13522;50.018;20.014;2023-04-04T12:09:45;99367.02;;;6.71;51.77
25664;BME280;13522;50.018;20.014;2023-04-04T12:12:58;99365.42;;;6.93;49.98
25664;BME280;13522;50.018;20.014;2023-04-04T12:16:12;99368.80;;;6.70;48.26
25664;BME280;13522;50.018;20.014;2023-04-04T12:19:26;99374.63;;;6.24;48.24
25664;BME280;13522;50.018;20.014;2023-04-04T12:22:39;99362.75;;;6.43;47.67
25664;BME280;13522;50.018;20.014;2023-04-04T12:25:51;99353.47;;;7.13;47.80
25664;BME280;13522;50.018;20.014;2023-04-04T12:29:04;99354.66;;;6.84;46.91
25664;BME280;13522;50.018;20.014;2023-04-04T12:32:17;99348.95;;;6.90;47.53
25664;BME280;13522;50.018;20.014;2023-04-04T12:35:30;99338.36;;;7.15;47.90
25664;BME280;13522;50.018;20.014;2023-04-04T12:38:58;99343.64;;;7.15;48.39
25664;BME280;13522;50.018;20.014;2023-04-04T12:42:11;99339.13;;;7.53;47.24
25664;BME280;13522;50.018;20.014;2023-04-04T12:45:26;99334.76;;;7.65;44.62
25664;BME280;13522;50.018;20.014;2023-04-04T12:48:39;99340.27;;;7.13;45.03
25664;BME280;13522;50.018;20.014;2023-04-04T12:51:53;99338.59;;;7.12;48.11
25664;BME280;13522;50.018;20.014;2023-04-04T12:55:10;99336.02;;;7.23;46.66
25664;BME280;13522;50.018;20.014;2023-04-04T12:58:24;99329.96;;;6.85;47.60
25664;BME280;13522;50.018;20.014;2023-04-04T13:01:39;99338.07;;;6.57;48.20
25664;BME280;13522;50.018;20.014;2023-04-04T13:04:54;99352.85;;;6.07;48.03
25664;BME280;13522;50.018;20.014;2023-04-04T13:08:08;99350.78;;;5.72;49.44
25664;BME280;13522;50.018;20.014;2023-04-04T13:11:21;99336.58;;;6.01;48.99
25664;BME280;13522;50.018;20.014;2023-04-04T13:14:57;99323.69;;;5.96;51.65
25664;BME280;13522;50.018;20.014;2023-04-04T13:18:16;99336.84;;;5.84;51.96
25664;BME280;13522;50.018;20.014;2023-04-04T13:21:30;99331.25;;;5.88;53.23
25664;BME280;13522;50.018;20.014;2023-04-04T13:24:44;99331.83;;;5.79;50.92
25664;BME280;13522;50.018;20.014;2023-04-04T13:27:56;99337.77;;;5.42;56.09
25664;BME280;13522;50.018;20.014;2023-04-04T13:31:09;99348.81;;;4.92;55.31
25664;BME280;13522;50.018;20.014;2023-04-04T13:34:23;99345.98;;;5.09;56.13
25664;BME280;13522;50.018;20.014;2023-04-04T13:37:36;99347.95;;;5.20;56.14
25664;BME280;13522;50.018;20.014;2023-04-04T13:40:48;99355.84;;;4.78;56.80
25664;BME280;13522;50.018;20.014;2023-04-04T13:44:00;99351.15;;;4.69;56.81
25664;BME280;13522;50.018;20.014;2023-04-04T13:47:12;99352.66;;;4.73;57.79
25664;BME280;13522;50.018;20.014;2023-04-04T13:50:29;99358.22;;;4.38;58.60
25664;BME280;13522;50.018;20.014;2023-04-04T13:53:41;99342.77;;;4.18;58.65
25664;BME280;13522;50.018;20.014;2023-04-04T13:56:54;99350.95;;;4.28;58.50
25664;BME280;13522;50.018;20.014;2023-04-04T14:00:09;99347.10;;;4.19;59.41
25664;BME280;13522;50.018;20.014;2023-04-04T14:03:24;99346.45;;;4.00;60.59
25664;BME280;13522;50.018;20.014;2023-04-04T14:06:36;99349.98;;;4.15;60.07
25664;BME280;13522;50.018;20.014;2023-04-04T14:09:50;99343.47;;;4.36;59.83
25664;BME280;13522;50.018;20.014;2023-04-04T14:13:02;99351.28;;;4.37;58.60
25664;BME280;13522;50.018;20.014;2023-04-04T14:16:14;99348.92;;;4.33;58.30
25664;BME280;13522;50.018;20.014;2023-04-04T14:19:30;99343.20;;;4.40;58.08
25664;BME280;13522;50.018;20.014;2023-04-04T14:22:42;99345.63;;;4.29;59.20
25664;BME280;13522;50.018;20.014;2023-04-04T14:25:54;99350.92;;;4.44;60.09
25664;BME280;13522;50.018;20.014;2023-04-04T14:29:07;99346.03;;;4.37;58.61
25664;BME280;13522;50.018;20.014;2023-04-04T14:32:19;99350.78;;;4.01;59.37
25664;BME280;13522;50.018;20.014;2023-04-04T14:35:31;99350.75;;;4.17;60.23
25664;BME280;13522;50.018;20.014;2023-04-04T14:38:44;99352.05;;;4.10;60.54
25664;BME280;13522;50.018;20.014;2023-04-04T14:41:56;99349.42;;;4.10;61.19
25664;BME280;13522;50.018;20.014;2023-04-04T14:45:10;99354.78;;;3.93;62.12
25664;BME280;13522;50.018;20.014;2023-04-04T14:48:23;99365.41;;;3.76;61.92
25664;BME280;13522;50.018;20.014;2023-04-04T14:51:35;99365.57;;;3.57;62.53
25664;BME280;13522;50.018;20.014;2023-04-04T14:54:48;99365.56;;;3.73;63.16
25664;BME280;13522;50.018;20.014;2023-04-04T14:58:00;99364.05;;;3.84;62.26
25664;BME280;13522;50.018;20.014;2023-04-04T15:01:13;99368.05;;;3.60;63.00
25664;BME280;13522;50.018;20.014;2023-04-04T15:04:26;99372.59;;;3.57;62.63
25664;BME280;13522;50.018;20.014;2023-04-04T15:07:39;99374.30;;;3.58;63.97
25664;BME280;13522;50.018;20.014;2023-04-04T15:10:51;99371.09;;;3.68;63.56
25664;BME280;13522;50.018;20.014;2023-04-04T15:14:04;99370.91;;;3.40;63.55
25664;BME280;13522;50.018;20.014;2023-04-04T15:17:17;99371.67;;;3.42;63.49
25664;BME280;13522;50.018;20.014;2023-04-04T15:20:29;99373.69;;;3.37;63.65
25664;BME280;13522;50.018;20.014;2023-04-04T15:23:45;99378.61;;;3.43;62.42
25664;BME280;13522;50.018;20.014;2023-04-04T15:26:57;99373.11;;;3.47;63.08
25664;BME280;13522;50.018;20.014;2023-04-04T15:30:13;99389.05;;;3.44;62.65
25664;BME280;13522;50.018;20.014;2023-04-04T15:33:26;99382.84;;;3.30;62.69
25664;BME280;13522;50.018;20.014;2023-04-04T15:36:38;99378.69;;;3.26;61.60
25664;BME280;13522;50.018;20.014;2023-04-04T15:39:51;99385.45;;;3.14;62.03
25664;BME280;13522;50.018;20.014;2023-04-04T15:43:03;99387.09;;;3.00;61.90
25664;BME280;13522;50.018;20.014;2023-04-04T15:46:15;99388.81;;;3.01;62.13
25664;BME280;13522;50.018;20.014;2023-04-04T15:49:28;99382.82;;;3.14;62.35
25664;BME280;13522;50.018;20.014;2023-04-04T15:52:40;99390.37;;;3.20;61.51
25664;BME280;13522;50.018;20.014;2023-04-04T15:55:53;99396.23;;;2.93;61.50
25664;BME280;13522;50.018;20.014;2023-04-04T15:59:05;99382.44;;;2.89;61.45
25664;BME280;13522;50.018;20.014;2023-04-04T16:02:17;99403.16;;;2.94;60.97
25664;BME280;13522;50.018;20.014;2023-04-04T16:05:31;99392.52;;;2.97;61.39
25664;BME280;13522;50.018;20.014;2023-04-04T16:08:43;99413.33;;;3.00;62.22
25664;BME280;13522;50.018;20.014;2023-04-04T16:11:56;99409.66;;;2.87;62.36
25664;BME280;13522;50.018;20.014;2023-04-04T16:15:10;99406.55;;;2.96;63.08
25664;BME280;13522;50.018;20.014;2023-04-04T16:18:22;99406.41;;;2.99;62.28
25664;BME280;13522;50.018;20.014;2023-04-04T16:21:35;99422.23;;;2.80;63.50
25664;BME280;13522;50.018;20.014;2023-04-04T16:24:47;99425.55;;;2.84;62.61
25664;BME280;13522;50.018;20.014;2023-04-04T16:27:59;99423.55;;;2.72;60.46
25664;BME280;13522;50.018;20.014;2023-04-04T16:31:14;99428.27;;;2.65;60.03
25664;BME280;13522;50.018;20.014;2023-04-04T16:34:26;99427.25;;;2.68;59.86
25664;BME280;13522;50.018;20.014;2023-04-04T16:37:40;99430.44;;;2.57;59.17
25664;BME280;13522;50.018;20.014;2023-04-04T16:40:53;99432.12;;;2.58;60.17
25664;BME280;13522;50.018;20.014;2023-04-04T16:44:05;99438.14;;;2.43;60.54
25664;BME280;13522;50.018;20.014;2023-04-04T16:47:18;99433.89;;;2.40;61.88
25664;BME280;13522;50.018;20.014;2023-04-04T16:50:32;99448.15;;;2.35;62.54
25664;BME280;13522;50.018;20.014;2023-04-04T16:53:45;99443.72;;;2.18;63.13
25664;BME280;13522;50.018;20.014;2023-04-04T16:56:57;99444.88;;;2.13;63.25
25664;BME280;13522;50.018;20.014;2023-04-04T17:00:12;99445.44;;;2.19;64.10
25664;BME280;13522;50.018;20.014;2023-04-04T17:03:25;99448.83;;;2.21;63.93
25664;BME280;13522;50.018;20.014;2023-04-04T17:06:38;99452.81;;;2.11;64.09
25664;BME280;13522;50.018;20.014;2023-04-04T17:09:50;99450.33;;;2.08;61.89